sensor_id;sensor_type;location;lat;lon;timestamp;P1;durP1;ratioP1;P2;durP2;ratioP2
1412;SDS011;701;52.526;13.408;2023-03-01T00:02:04;27.70;;;10.97;;
1412;SDS011;701;52.526;13.408;2023-03-01T00:04:30;24.60;;;10.50;;
1412;SDS011;701;52.526;13.408;2023-03-01T00:06:56;23.63;;;10.13;;
1412;SDS011;701;52.526;13.408;2023-03-01T00:09:22;31.98;;;11.45;;
1412;SDS011;701;52.526;13.408;2023-03-01T00:11:48;24.55;;;10.82;;
1412;SDS011;701;52.526;13.408;2023-03-01T00:14:14;26.03;;;9.87;;
1412;SDS011;701;52.526;13.408;2023-03-01T00:16:42;24.35;;;10.82;;
1412;SDS011;701;52.526;13.408;2023-03-01T00:19:11;31.20;;;11.25;;
1412;SDS011;701;52.526;13.408;2023-03-01T00:21:39;26.83;;;11.73;;
1412;SDS011;701;52.526;13.408;2023-03-01T00:24:05;35.20;;;11.68;;
1412;SDS011;701;52.526;13.408;2023-03-01T00:26:32;24.73;;;11.27;;
1412;SDS011;701;52.526;13.408;2023-03-01T00:28:57;27.67;;;11.43;;
1412;SDS011;701;52.526;13.408;2023-03-01T00:31:27;26.70;;;11.43;;
1412;SDS011;701;52.526;13.408;2023-03-01T00:33:56;26.93;;;11.13;;
1412;SDS011;701;52.526;13.408;2023-03-01T00:36:29;25.92;;;11.48;;
1412;SDS011;701;52.526;13.408;2023-03-01T00:38:57;30.40;;;12.07;;
1412;SDS011;701;52.526;13.408;2023-03-01T00:41:23;34.22;;;12.52;;
1412;SDS011;701;52.526;13.408;2023-03-01T00:43:51;34.70;;;12.07;;
1412;SDS011;701;52.526;13.408;2023-03-01T00:46:19;26.10;;;10.25;;
1412;SDS011;701;52.526;13.408;2023-03-01T00:48:48;24.40;;;11.23;;
1412;SDS011;701;52.526;13.408;2023-03-01T00:51:15;27.63;;;11.77;;
1412;SDS011;701;52.526;13.408;2023-03-01T00:53:45;30.08;;;12.20;;
1412;SDS011;701;52.526;13.408;2023-03-01T00:56:12;27.97;;;11.60;;
1412;SDS011;701;52.526;13.408;2023-03-01T00:58:39;30.20;;;12.25;;
1412;SDS011;701;52.526;13.408;2023-03-01T01:01:12;31.02;;;12.25;;
1412;SDS011;701;52.526;13.408;2023-03-01T01:03:53;28.02;;;12.70;;
1412;SDS011;701;52.526;13.408;2023-03-01T01:06:25;27.10;;;11.55;;
1412;SDS011;701;52.526;13.408;2023-03-01T01:08:53;25.73;;;11.13;;
1412;SDS011;701;52.526;13.408;2023-03-01T01:11:20;28.33;;;12.18;;
1412;SDS011;701;52.526;13.408;2023-03-01T01:13:47;30.58;;;12.05;;
1412;SDS011;701;52.526;13.408;2023-03-01T01:16:13;29.75;;;12.35;;
1412;SDS011;701;52.526;13.408;2023-03-01T01:18:40;30.13;;;12.18;;
1412;SDS011;701;52.526;13.408;2023-03-01T01:21:08;23.53;;;10.87;;
1412;SDS011;701;52.526;13.408;2023-03-01T01:23:39;24.42;;;11.23;;
1412;SDS011;701;52.526;13.408;2023-03-01T01:26:08;27.45;;;12.18;;
1412;SDS011;701;52.526;13.408;2023-03-01T01:28:42;28.23;;;10.70;;
1412;SDS011;701;52.526;13.408;2023-03-01T01:31:08;27.23;;;11.93;;
1412;SDS011;701;52.526;13.408;2023-03-01T01:33:34;25.35;;;10.80;;
1412;SDS011;701;52.526;13.408;2023-03-01T01:36:00;23.60;;;10.60;;
1412;SDS011;701;52.526;13.408;2023-03-01T01:38:26;27.33;;;12.10;;
1412;SDS011;701;52.526;13.408;2023-03-01T01:40:51;24.67;;;11.00;;
1412;SDS011;701;52.526;13.408;2023-03-01T01:43:31;29.73;;;12.07;;
1412;SDS011;701;52.526;13.408;2023-03-01T01:46:22;25.85;;;10.75;;
1412;SDS011;701;52.526;13.408;2023-03-01T01:49:01;26.38;;;10.80;;
1412;SDS011;701;52.526;13.408;2023-03-01T01:51:37;30.65;;;12.50;;
1412;SDS011;701;52.526;13.408;2023-03-01T01:54:07;26.52;;;11.82;;
1412;SDS011;701;52.526;13.408;2023-03-01T01:56:37;25.07;;;11.63;;
1412;SDS011;701;52.526;13.408;2023-03-01T01:59:07;29.00;;;11.55;;
1412;SDS011;701;52.526;13.408;2023-03-01T02:01:33;26.33;;;11.60;;
1412;SDS011;701;52.526;13.408;2023-03-01T02:03:59;26.37;;;11.80;;
1412;SDS011;701;52.526;13.408;2023-03-01T02:06:27;25.13;;;11.18;;
1412;SDS011;701;52.526;13.408;2023-03-01T02:09:07;27.85;;;11.85;;
1412;SDS011;701;52.526;13.408;2023-03-01T02:11:38;30.20;;;12.68;;
1412;SDS011;701;52.526;13.408;2023-03-01T02:14:04;23.05;;;10.45;;
1412;SDS011;701;52.526;13.408;2023-03-01T02:16:31;27.33;;;11.35;;
1412;SDS011;701;52.526;13.408;2023-03-01T02:18:57;24.73;;;10.43;;
1412;SDS011;701;52.526;13.408;2023-03-01T02:22:25;23.55;;;10.00;;
1412;SDS011;701;52.526;13.408;2023-03-01T02:27:40;26.63;;;11.20;;
1412;SDS011;701;52.526;13.408;2023-03-01T02:30:20;23.75;;;10.15;;
1412;SDS011;701;52.526;13.408;2023-03-01T02:32:47;21.40;;;10.30;;
1412;SDS011;701;52.526;13.408;2023-03-01T02:35:16;22.85;;;9.65;;
1412;SDS011;701;52.526;13.408;2023-03-01T02:37:44;24.20;;;10.43;;
1412;SDS011;701;52.526;13.408;2023-03-01T02:40:11;22.17;;;9.73;;
1412;SDS011;701;52.526;13.408;2023-03-01T02:42:47;24.67;;;9.70;;
1412;SDS011;701;52.526;13.408;2023-03-01T02:45:19;21.05;;;9.60;;
1412;SDS011;701;52.526;13.408;2023-03-01T02:47:45;21.95;;;10.63;;
1412;SDS011;701;52.526;13.408;2023-03-01T02:50:29;21.88;;;10.20;;
1412;SDS011;701;52.526;13.408;2023-03-01T02:53:21;22.57;;;10.70;;
1412;SDS011;701;52.526;13.408;2023-03-01T02:55:57;25.40;;;10.90;;
1412;SDS011;701;52.526;13.408;2023-03-01T02:58:24;25.20;;;11.18;;
1412;SDS011;701;52.526;13.408;2023-03-01T03:00:50;24.27;;;10.40;;
1412;SDS011;701;52.526;13.408;2023-03-01T03:03:17;20.67;;;10.20;;
1412;SDS011;701;52.526;13.408;2023-03-01T03:05:45;26.57;;;10.37;;
1412;SDS011;701;52.526;13.408;2023-03-01T03:08:11;22.33;;;10.68;;
1412;SDS011;701;52.526;13.408;2023-03-01T03:10:39;25.58;;;11.05;;
1412;SDS011;701;52.526;13.408;2023-03-01T03:13:11;26.00;;;11.07;;
1412;SDS011;701;52.526;13.408;2023-03-01T03:15:39;24.77;;;10.35;;
1412;SDS011;701;52.526;13.408;2023-03-01T03:18:08;24.83;;;11.67;;
1412;SDS011;701;52.526;13.408;2023-03-01T03:20:36;29.23;;;11.60;;
1412;SDS011;701;52.526;13.408;2023-03-01T03:23:03;22.35;;;11.50;;
1412;SDS011;701;52.526;13.408;2023-03-01T03:25:29;25.02;;;11.32;;
1412;SDS011;701;52.526;13.408;2023-03-01T03:27:55;25.73;;;11.48;;
1412;SDS011;701;52.526;13.408;2023-03-01T03:30:22;25.17;;;10.70;;
1412;SDS011;701;52.526;13.408;2023-03-01T03:32:53;24.45;;;10.90;;
1412;SDS011;701;52.526;13.408;2023-03-01T03:35:20;23.15;;;10.60;;
1412;SDS011;701;52.526;13.408;2023-03-01T03:37:51;26.15;;;10.35;;
1412;SDS011;701;52.526;13.408;2023-03-01T03:42:56;25.27;;;10.37;;
1412;SDS011;701;52.526;13.408;2023-03-01T03:45:21;23.50;;;11.32;;
1412;SDS011;701;52.526;13.408;2023-03-01T03:47:47;23.90;;;11.37;;
1412;SDS011;701;52.526;13.408;2023-03-01T03:50:14;24.30;;;11.23;;
1412;SDS011;701;52.526;13.408;2023-03-01T03:52:41;24.40;;;11.18;;
1412;SDS011;701;52.526;13.408;2023-03-01T03:55:07;23.13;;;11.00;;
1412;SDS011;701;52.526;13.408;2023-03-01T03:57:35;24.15;;;11.45;;
1412;SDS011;701;52.526;13.408;2023-03-01T04:00:03;24.43;;;11.33;;
1412;SDS011;701;52.526;13.408;2023-03-01T04:02:37;24.38;;;10.98;;
1412;SDS011;701;52.526;13.408;2023-03-01T04:05:04;26.60;;;11.60;;
1412;SDS011;701;52.526;13.408;2023-03-01T04:07:31;29.08;;;11.00;;
1412;SDS011;701;52.526;13.408;2023-03-01T04:09:56;25.17;;;10.70;;
1412;SDS011;701;52.526;13.408;2023-03-01T04:12:22;25.13;;;11.02;;
1412;SDS011;701;52.526;13.408;2023-03-01T04:14:48;26.77;;;11.80;;
1412;SDS011;701;52.526;13.408;2023-03-01T04:17:14;25.17;;;11.73;;
1412;SDS011;701;52.526;13.408;2023-03-01T04:19:39;23.90;;;10.73;;
1412;SDS011;701;52.526;13.408;2023-03-01T04:22:05;22.70;;;11.73;;
1412;SDS011;701;52.526;13.408;2023-03-01T04:24:34;27.73;;;11.68;;
1412;SDS011;701;52.526;13.408;2023-03-01T04:27:01;25.90;;;10.93;;
1412;SDS011;701;52.526;13.408;2023-03-01T04:29:27;28.95;;;11.60;;
1412;SDS011;701;52.526;13.408;2023-03-01T04:31:53;27.45;;;11.60;;
1412;SDS011;701;52.526;13.408;2023-03-01T04:34:18;23.77;;;10.83;;
1412;SDS011;701;52.526;13.408;2023-03-01T04:36:44;23.55;;;10.80;;
1412;SDS011;701;52.526;13.408;2023-03-01T04:39:10;23.90;;;11.33;;
1412;SDS011;701;52.526;13.408;2023-03-01T04:41:39;23.80;;;10.60;;
1412;SDS011;701;52.526;13.408;2023-03-01T04:44:05;27.27;;;11.27;;
1412;SDS011;701;52.526;13.408;2023-03-01T04:46:32;24.80;;;10.95;;
1412;SDS011;701;52.526;13.408;2023-03-01T04:48:58;25.97;;;10.97;;
1412;SDS011;701;52.526;13.408;2023-03-01T04:51:23;25.45;;;11.75;;
1412;SDS011;701;52.526;13.408;2023-03-01T04:53:49;32.50;;;12.03;;
1412;SDS011;701;52.526;13.408;2023-03-01T04:56:15;27.50;;;11.52;;
1412;SDS011;701;52.526;13.408;2023-03-01T04:58:43;29.55;;;11.77;;
1412;SDS011;701;52.526;13.408;2023-03-01T05:01:16;22.52;;;10.93;;
1412;SDS011;701;52.526;13.408;2023-03-01T05:03:44;26.07;;;11.20;;
1412;SDS011;701;52.526;13.408;2023-03-01T05:06:11;24.42;;;11.13;;
1412;SDS011;701;52.526;13.408;2023-03-01T05:08:38;25.60;;;11.50;;
1412;SDS011;701;52.526;13.408;2023-03-01T05:11:05;25.67;;;11.05;;
1412;SDS011;701;52.526;13.408;2023-03-01T05:13:34;24.30;;;10.32;;
1412;SDS011;701;52.526;13.408;2023-03-01T05:16:03;25.23;;;11.07;;
1412;SDS011;701;52.526;13.408;2023-03-01T05:18:31;24.42;;;10.23;;
1412;SDS011;701;52.526;13.408;2023-03-01T05:21:11;23.88;;;10.52;;
1412;SDS011;701;52.526;13.408;2023-03-01T05:23:41;24.30;;;10.75;;
1412;SDS011;701;52.526;13.408;2023-03-01T05:26:07;28.42;;;11.45;;
1412;SDS011;701;52.526;13.408;2023-03-01T05:28:33;23.93;;;10.70;;
1412;SDS011;701;52.526;13.408;2023-03-01T05:30:59;22.73;;;10.93;;
1412;SDS011;701;52.526;13.408;2023-03-01T05:33:25;23.50;;;10.80;;
1412;SDS011;701;52.526;13.408;2023-03-01T05:35:52;23.77;;;10.55;;
1412;SDS011;701;52.526;13.408;2023-03-01T05:38:18;26.13;;;11.03;;
1412;SDS011;701;52.526;13.408;2023-03-01T05:40:46;27.55;;;11.50;;
1412;SDS011;701;52.526;13.408;2023-03-01T05:43:15;25.50;;;11.57;;
1412;SDS011;701;52.526;13.408;2023-03-01T05:45:42;27.63;;;11.15;;
1412;SDS011;701;52.526;13.408;2023-03-01T05:48:08;25.50;;;11.90;;
1412;SDS011;701;52.526;13.408;2023-03-01T05:50:36;25.73;;;10.77;;
1412;SDS011;701;52.526;13.408;2023-03-01T05:53:05;23.50;;;10.43;;
1412;SDS011;701;52.526;13.408;2023-03-01T05:55:34;24.38;;;11.20;;
1412;SDS011;701;52.526;13.408;2023-03-01T05:58:01;25.52;;;11.15;;
1412;SDS011;701;52.526;13.408;2023-03-01T06:00:29;28.63;;;11.40;;
1412;SDS011;701;52.526;13.408;2023-03-01T06:02:55;25.13;;;11.30;;
1412;SDS011;701;52.526;13.408;2023-03-01T06:05:22;24.17;;;11.27;;
1412;SDS011;701;52.526;13.408;2023-03-01T06:07:49;25.75;;;11.82;;
1412;SDS011;701;52.526;13.408;2023-03-01T06:10:15;26.90;;;11.23;;
1412;SDS011;701;52.526;13.408;2023-03-01T06:12:42;25.02;;;11.55;;
1412;SDS011;701;52.526;13.408;2023-03-01T06:15:10;25.53;;;10.77;;
1412;SDS011;701;52.526;13.408;2023-03-01T06:17:41;26.65;;;11.55;;
1412;SDS011;701;52.526;13.408;2023-03-01T06:20:10;22.90;;;11.15;;
1412;SDS011;701;52.526;13.408;2023-03-01T06:22:38;25.55;;;10.93;;
1412;SDS011;701;52.526;13.408;2023-03-01T06:25:04;27.75;;;11.50;;
1412;SDS011;701;52.526;13.408;2023-03-01T06:27:30;26.03;;;11.70;;
1412;SDS011;701;52.526;13.408;2023-03-01T06:29:56;27.23;;;11.63;;
1412;SDS011;701;52.526;13.408;2023-03-01T06:32:22;28.02;;;12.13;;
1412;SDS011;701;52.526;13.408;2023-03-01T06:34:49;29.60;;;11.90;;
1412;SDS011;701;52.526;13.408;2023-03-01T06:37:15;27.20;;;12.30;;
1412;SDS011;701;52.526;13.408;2023-03-01T06:39:41;29.45;;;12.98;;
1412;SDS011;701;52.526;13.408;2023-03-01T06:42:07;26.07;;;11.60;;
1412;SDS011;701;52.526;13.408;2023-03-01T06:44:35;28.52;;;12.02;;
1412;SDS011;701;52.526;13.408;2023-03-01T06:47:01;33.05;;;13.65;;
1412;SDS011;701;52.526;13.408;2023-03-01T06:49:28;30.30;;;12.93;;
1412;SDS011;701;52.526;13.408;2023-03-01T06:51:55;24.88;;;12.45;;
1412;SDS011;701;52.526;13.408;2023-03-01T06:54:22;29.27;;;13.43;;
1412;SDS011;701;52.526;13.408;2023-03-01T06:56:48;28.17;;;12.45;;
1412;SDS011;701;52.526;13.408;2023-03-01T06:59:15;31.92;;;13.77;;
1412;SDS011;701;52.526;13.408;2023-03-01T07:01:41;36.13;;;13.70;;
1412;SDS011;701;52.526;13.408;2023-03-01T07:04:08;28.60;;;14.07;;
1412;SDS011;701;52.526;13.408;2023-03-01T07:06:35;31.70;;;13.67;;
1412;SDS011;701;52.526;13.408;2023-03-01T07:09:01;30.35;;;13.65;;
1412;SDS011;701;52.526;13.408;2023-03-01T07:11:28;35.05;;;14.57;;
1412;SDS011;701;52.526;13.408;2023-03-01T07:13:53;34.37;;;14.57;;
1412;SDS011;701;52.526;13.408;2023-03-01T07:16:20;34.85;;;15.63;;
1412;SDS011;701;52.526;13.408;2023-03-01T07:18:46;32.30;;;13.88;;
1412;SDS011;701;52.526;13.408;2023-03-01T07:21:12;33.20;;;14.73;;
1412;SDS011;701;52.526;13.408;2023-03-01T07:23:39;34.47;;;14.57;;
1412;SDS011;701;52.526;13.408;2023-03-01T07:26:06;34.17;;;15.10;;
1412;SDS011;701;52.526;13.408;2023-03-01T07:28:32;31.73;;;15.02;;
1412;SDS011;701;52.526;13.408;2023-03-01T07:31:01;32.63;;;14.75;;
1412;SDS011;701;52.526;13.408;2023-03-01T07:33:27;30.87;;;14.80;;
1412;SDS011;701;52.526;13.408;2023-03-01T07:35:57;32.65;;;14.40;;
1412;SDS011;701;52.526;13.408;2023-03-01T07:38:25;27.40;;;12.63;;
1412;SDS011;701;52.526;13.408;2023-03-01T07:40:51;33.53;;;13.50;;
1412;SDS011;701;52.526;13.408;2023-03-01T07:43:17;45.67;;;12.20;;
1412;SDS011;701;52.526;13.408;2023-03-01T07:45:42;32.17;;;12.07;;
1412;SDS011;701;52.526;13.408;2023-03-01T07:48:08;26.30;;;11.65;;
1412;SDS011;701;52.526;13.408;2023-03-01T07:50:34;26.17;;;12.95;;
1412;SDS011;701;52.526;13.408;2023-03-01T07:53:00;26.70;;;12.17;;
1412;SDS011;701;52.526;13.408;2023-03-01T07:55:26;30.73;;;12.50;;
1412;SDS011;701;52.526;13.408;2023-03-01T07:57:51;28.33;;;12.47;;
1412;SDS011;701;52.526;13.408;2023-03-01T08:00:17;27.80;;;11.25;;
1412;SDS011;701;52.526;13.408;2023-03-01T08:02:43;21.73;;;10.73;;
1412;SDS011;701;52.526;13.408;2023-03-01T08:05:10;24.25;;;10.65;;
1412;SDS011;701;52.526;13.408;2023-03-01T08:07:36;24.25;;;11.13;;
1412;SDS011;701;52.526;13.408;2023-03-01T08:10:03;29.55;;;11.88;;
1412;SDS011;701;52.526;13.408;2023-03-01T08:12:29;24.83;;;11.90;;
1412;SDS011;701;52.526;13.408;2023-03-01T08:14:55;28.27;;;12.13;;
1412;SDS011;701;52.526;13.408;2023-03-01T08:17:21;27.40;;;11.77;;
1412;SDS011;701;52.526;13.408;2023-03-01T08:19:47;24.73;;;12.00;;
1412;SDS011;701;52.526;13.408;2023-03-01T08:22:13;26.83;;;12.27;;
1412;SDS011;701;52.526;13.408;2023-03-01T08:24:39;30.23;;;13.60;;
1412;SDS011;701;52.526;13.408;2023-03-01T08:27:04;21.57;;;10.97;;
1412;SDS011;701;52.526;13.408;2023-03-01T08:29:31;19.98;;;9.90;;
1412;SDS011;701;52.526;13.408;2023-03-01T08:31:58;20.35;;;9.63;;
1412;SDS011;701;52.526;13.408;2023-03-01T08:34:24;21.42;;;9.30;;
1412;SDS011;701;52.526;13.408;2023-03-01T08:36:50;22.57;;;7.77;;
1412;SDS011;701;52.526;13.408;2023-03-01T08:39:17;16.88;;;8.20;;
1412;SDS011;701;52.526;13.408;2023-03-01T08:41:45;19.42;;;8.70;;
1412;SDS011;701;52.526;13.408;2023-03-01T08:44:12;31.23;;;9.77;;
1412;SDS011;701;52.526;13.408;2023-03-01T08:46:42;23.37;;;8.67;;
1412;SDS011;701;52.526;13.408;2023-03-01T08:49:11;16.67;;;7.75;;
1412;SDS011;701;52.526;13.408;2023-03-01T08:51:41;17.58;;;6.90;;
1412;SDS011;701;52.526;13.408;2023-03-01T08:54:09;16.55;;;7.00;;
1412;SDS011;701;52.526;13.408;2023-03-01T08:56:38;18.38;;;6.97;;
1412;SDS011;701;52.526;13.408;2023-03-01T08:59:04;16.10;;;7.20;;
1412;SDS011;701;52.526;13.408;2023-03-01T09:01:30;18.55;;;7.03;;
1412;SDS011;701;52.526;13.408;2023-03-01T09:03:55;15.93;;;6.88;;
1412;SDS011;701;52.526;13.408;2023-03-01T09:06:21;15.73;;;6.03;;
1412;SDS011;701;52.526;13.408;2023-03-01T09:08:47;12.50;;;5.78;;
1412;SDS011;701;52.526;13.408;2023-03-01T09:11:15;18.10;;;6.43;;
1412;SDS011;701;52.526;13.408;2023-03-01T09:13:43;13.68;;;6.28;;
1412;SDS011;701;52.526;13.408;2023-03-01T09:16:11;15.07;;;5.28;;
1412;SDS011;701;52.526;13.408;2023-03-01T09:18:38;13.90;;;5.68;;
1412;SDS011;701;52.526;13.408;2023-03-01T09:21:05;19.52;;;9.25;;
1412;SDS011;701;52.526;13.408;2023-03-01T09:23:36;12.10;;;5.50;;
1412;SDS011;701;52.526;13.408;2023-03-01T09:26:04;12.60;;;5.10;;
1412;SDS011;701;52.526;13.408;2023-03-01T09:28:30;14.38;;;5.20;;
1412;SDS011;701;52.526;13.408;2023-03-01T09:30:59;15.77;;;6.30;;
1412;SDS011;701;52.526;13.408;2023-03-01T09:33:26;14.53;;;5.50;;
1412;SDS011;701;52.526;13.408;2023-03-01T09:35:59;16.45;;;5.05;;
1412;SDS011;701;52.526;13.408;2023-03-01T09:38:26;10.40;;;4.97;;
1412;SDS011;701;52.526;13.408;2023-03-01T09:40:52;14.65;;;5.22;;
1412;SDS011;701;52.526;13.408;2023-03-01T09:43:34;11.38;;;4.88;;
1412;SDS011;701;52.526;13.408;2023-03-01T09:46:08;11.37;;;4.70;;
1412;SDS011;701;52.526;13.408;2023-03-01T09:48:41;13.88;;;5.05;;
1412;SDS011;701;52.526;13.408;2023-03-01T09:51:12;14.32;;;4.65;;
1412;SDS011;701;52.526;13.408;2023-03-01T09:53:50;10.00;;;4.18;;
1412;SDS011;701;52.526;13.408;2023-03-01T09:56:20;10.95;;;4.63;;
1412;SDS011;701;52.526;13.408;2023-03-01T09:59:13;15.73;;;7.60;;
1412;SDS011;701;52.526;13.408;2023-03-01T10:04:52;11.13;;;5.20;;
1412;SDS011;701;52.526;13.408;2023-03-01T10:10:18;12.15;;;5.88;;
1412;SDS011;701;52.526;13.408;2023-03-01T10:12:54;12.37;;;5.23;;
1412;SDS011;701;52.526;13.408;2023-03-01T10:15:25;13.15;;;5.40;;
1412;SDS011;701;52.526;13.408;2023-03-01T10:18:05;11.25;;;5.00;;
1412;SDS011;701;52.526;13.408;2023-03-01T10:20:42;14.30;;;4.95;;
1412;SDS011;701;52.526;13.408;2023-03-01T10:23:13;9.98;;;4.55;;
1412;SDS011;701;52.526;13.408;2023-03-01T10:28:20;10.00;;;4.50;;
1412;SDS011;701;52.526;13.408;2023-03-01T10:31:11;9.57;;;3.92;;
1412;SDS011;701;52.526;13.408;2023-03-01T10:33:40;13.35;;;3.83;;
1412;SDS011;701;52.526;13.408;2023-03-01T10:36:09;10.98;;;4.15;;
1412;SDS011;701;52.526;13.408;2023-03-01T10:38:54;9.20;;;4.07;;
1412;SDS011;701;52.526;13.408;2023-03-01T10:41:23;7.25;;;3.50;;
1412;SDS011;701;52.526;13.408;2023-03-01T10:46:24;9.93;;;3.23;;
1412;SDS011;701;52.526;13.408;2023-03-01T10:49:07;11.57;;;4.30;;
1412;SDS011;701;52.526;13.408;2023-03-01T10:51:38;15.10;;;4.40;;
1412;SDS011;701;52.526;13.408;2023-03-01T10:54:06;9.48;;;3.65;;
1412;SDS011;701;52.526;13.408;2023-03-01T10:56:55;9.47;;;3.07;;
1412;SDS011;701;52.526;13.408;2023-03-01T10:59:25;7.00;;;3.00;;
1412;SDS011;701;52.526;13.408;2023-03-01T11:05:44;8.98;;;2.95;;
1412;SDS011;701;52.526;13.408;2023-03-01T11:07:48;6.47;;;2.88;;
1412;SDS011;701;52.526;13.408;2023-03-01T11:10:20;9.93;;;2.97;;
1412;SDS011;701;52.526;13.408;2023-03-01T11:12:48;7.75;;;3.40;;
1412;SDS011;701;52.526;13.408;2023-03-01T11:15:19;9.55;;;3.22;;
1412;SDS011;701;52.526;13.408;2023-03-01T11:17:47;7.75;;;3.08;;
1412;SDS011;701;52.526;13.408;2023-03-01T11:25:29;9.15;;;3.00;;
1412;SDS011;701;52.526;13.408;2023-03-01T11:28:01;8.83;;;3.07;;
1412;SDS011;701;52.526;13.408;2023-03-01T11:30:31;17.00;;;5.68;;
1412;SDS011;701;52.526;13.408;2023-03-01T11:33:21;7.30;;;2.92;;
1412;SDS011;701;52.526;13.408;2023-03-01T11:36:30;9.75;;;4.28;;
1412;SDS011;701;52.526;13.408;2023-03-01T11:39:58;21.15;;;7.97;;
1412;SDS011;701;52.526;13.408;2023-03-01T11:42:20;10.20;;;3.33;;
1412;SDS011;701;52.526;13.408;2023-03-01T11:44:52;9.43;;;3.85;;
1412;SDS011;701;52.526;13.408;2023-03-01T11:47:30;10.57;;;3.58;;
1412;SDS011;701;52.526;13.408;2023-03-01T11:50:19;9.25;;;3.10;;
1412;SDS011;701;52.526;13.408;2023-03-01T11:52:58;9.93;;;3.28;;
1412;SDS011;701;52.526;13.408;2023-03-01T11:55:48;10.07;;;3.07;;
1412;SDS011;701;52.526;13.408;2023-03-01T12:01:12;9.20;;;3.15;;
1412;SDS011;701;52.526;13.408;2023-03-01T12:06:17;7.13;;;3.05;;
1412;SDS011;701;52.526;13.408;2023-03-01T12:09:14;7.80;;;3.20;;
1412;SDS011;701;52.526;13.408;2023-03-01T12:11:43;10.65;;;3.05;;
1412;SDS011;701;52.526;13.408;2023-03-01T12:14:38;14.60;;;2.92;;
1412;SDS011;701;52.526;13.408;2023-03-01T12:30:26;8.85;;;2.58;;
1412;SDS011;701;52.526;13.408;2023-03-01T12:46:41;6.47;;;2.58;;
1412;SDS011;701;52.526;13.408;2023-03-01T12:49:26;7.07;;;2.70;;
1412;SDS011;701;52.526;13.408;2023-03-01T12:54:31;7.47;;;2.67;;
1412;SDS011;701;52.526;13.408;2023-03-01T12:57:12;6.97;;;2.70;;
1412;SDS011;701;52.526;13.408;2023-03-01T13:02:50;7.17;;;2.80;;
1412;SDS011;701;52.526;13.408;2023-03-01T13:08:24;8.73;;;2.72;;
1412;SDS011;701;52.526;13.408;2023-03-01T13:10:59;8.02;;;2.50;;
1412;SDS011;701;52.526;13.408;2023-03-01T13:13:30;9.00;;;2.83;;
1412;SDS011;701;52.526;13.408;2023-03-01T13:15:56;7.00;;;2.30;;
1412;SDS011;701;52.526;13.408;2023-03-01T13:20:50;8.65;;;2.88;;
1412;SDS011;701;52.526;13.408;2023-03-01T13:31:01;6.85;;;2.58;;
1412;SDS011;701;52.526;13.408;2023-03-01T13:35:54;9.77;;;2.77;;
1412;SDS011;701;52.526;13.408;2023-03-01T13:41:06;7.50;;;2.75;;
1412;SDS011;701;52.526;13.408;2023-03-01T13:43:34;5.90;;;2.10;;
1412;SDS011;701;52.526;13.408;2023-03-01T13:46:02;9.43;;;2.38;;
1412;SDS011;701;52.526;13.408;2023-03-01T13:48:36;7.38;;;2.60;;
1412;SDS011;701;52.526;13.408;2023-03-01T13:51:09;9.05;;;2.92;;
1412;SDS011;701;52.526;13.408;2023-03-01T13:53:39;6.32;;;2.47;;
1412;SDS011;701;52.526;13.408;2023-03-01T13:56:09;6.03;;;2.38;;
1412;SDS011;701;52.526;13.408;2023-03-01T13:58:50;7.28;;;2.30;;
1412;SDS011;701;52.526;13.408;2023-03-01T14:03:55;6.45;;;2.20;;
1412;SDS011;701;52.526;13.408;2023-03-01T14:06:24;6.10;;;2.30;;
1412;SDS011;701;52.526;13.408;2023-03-01T14:09:00;7.57;;;2.30;;
1412;SDS011;701;52.526;13.408;2023-03-01T14:11:54;8.15;;;2.40;;
1412;SDS011;701;52.526;13.408;2023-03-01T14:19:59;6.95;;;2.70;;
1412;SDS011;701;52.526;13.408;2023-03-01T14:22:33;7.50;;;2.38;;
1412;SDS011;701;52.526;13.408;2023-03-01T14:25:05;7.40;;;2.40;;
1412;SDS011;701;52.526;13.408;2023-03-01T14:27:41;7.25;;;2.45;;
1412;SDS011;701;52.526;13.408;2023-03-01T14:32:37;8.77;;;2.45;;
1412;SDS011;701;52.526;13.408;2023-03-01T14:35:18;7.93;;;2.65;;
1412;SDS011;701;52.526;13.408;2023-03-01T14:37:49;8.30;;;2.20;;
1412;SDS011;701;52.526;13.408;2023-03-01T14:40:22;10.18;;;3.72;;
1412;SDS011;701;52.526;13.408;2023-03-01T14:42:54;6.55;;;2.50;;
1412;SDS011;701;52.526;13.408;2023-03-01T14:45:22;7.63;;;2.95;;
1412;SDS011;701;52.526;13.408;2023-03-01T14:47:51;6.77;;;2.30;;
1412;SDS011;701;52.526;13.408;2023-03-01T14:50:27;8.57;;;2.60;;
1412;SDS011;701;52.526;13.408;2023-03-01T14:52:57;8.63;;;2.38;;
1412;SDS011;701;52.526;13.408;2023-03-01T14:55:29;19.27;;;2.97;;
1412;SDS011;701;52.526;13.408;2023-03-01T14:58:04;7.80;;;2.63;;
1412;SDS011;701;52.526;13.408;2023-03-01T15:00:31;8.50;;;2.77;;
1412;SDS011;701;52.526;13.408;2023-03-01T15:03:10;9.95;;;2.40;;
1412;SDS011;701;52.526;13.408;2023-03-01T15:05:40;10.95;;;2.72;;
1412;SDS011;701;52.526;13.408;2023-03-01T15:08:10;8.02;;;2.40;;
1412;SDS011;701;52.526;13.408;2023-03-01T15:10:55;9.32;;;3.78;;
1412;SDS011;701;52.526;13.408;2023-03-01T15:13:32;8.97;;;2.50;;
1412;SDS011;701;52.526;13.408;2023-03-01T15:16:41;8.73;;;2.92;;
1412;SDS011;701;52.526;13.408;2023-03-01T15:18:50;6.85;;;2.70;;
1412;SDS011;701;52.526;13.408;2023-03-01T15:21:21;12.73;;;2.60;;
1412;SDS011;701;52.526;13.408;2023-03-01T15:24:15;9.75;;;2.85;;
1412;SDS011;701;52.526;13.408;2023-03-01T15:26:56;6.67;;;2.50;;
1412;SDS011;701;52.526;13.408;2023-03-01T15:29:27;6.93;;;2.38;;
1412;SDS011;701;52.526;13.408;2023-03-01T15:34:24;6.97;;;2.60;;
1412;SDS011;701;52.526;13.408;2023-03-01T15:42:50;7.90;;;2.05;;
1412;SDS011;701;52.526;13.408;2023-03-01T15:47:52;7.10;;;2.47;;
1412;SDS011;701;52.526;13.408;2023-03-01T15:50:29;8.80;;;2.55;;
1412;SDS011;701;52.526;13.408;2023-03-01T15:52:58;9.75;;;3.35;;
1412;SDS011;701;52.526;13.408;2023-03-01T15:55:28;7.15;;;2.75;;
1412;SDS011;701;52.526;13.408;2023-03-01T15:58:14;10.68;;;2.95;;
1412;SDS011;701;52.526;13.408;2023-03-01T16:00:42;7.87;;;2.57;;
1412;SDS011;701;52.526;13.408;2023-03-01T16:03:10;8.35;;;3.70;;
1412;SDS011;701;52.526;13.408;2023-03-01T16:05:37;6.53;;;2.35;;
1412;SDS011;701;52.526;13.408;2023-03-01T16:08:04;7.55;;;2.60;;
1412;SDS011;701;52.526;13.408;2023-03-01T16:10:31;8.68;;;2.53;;
1412;SDS011;701;52.526;13.408;2023-03-01T16:12:57;6.63;;;2.60;;
1412;SDS011;701;52.526;13.408;2023-03-01T16:15:25;7.75;;;2.80;;
1412;SDS011;701;52.526;13.408;2023-03-01T16:17:53;7.55;;;3.10;;
1412;SDS011;701;52.526;13.408;2023-03-01T16:20:22;6.70;;;2.70;;
1412;SDS011;701;52.526;13.408;2023-03-01T16:22:48;8.18;;;2.88;;
1412;SDS011;701;52.526;13.408;2023-03-01T16:25:15;8.13;;;2.57;;
1412;SDS011;701;52.526;13.408;2023-03-01T16:27:43;10.82;;;2.42;;
1412;SDS011;701;52.526;13.408;2023-03-01T16:30:11;8.25;;;2.47;;
1412;SDS011;701;52.526;13.408;2023-03-01T16:32:38;8.57;;;2.30;;
1412;SDS011;701;52.526;13.408;2023-03-01T16:35:06;9.07;;;3.35;;
1412;SDS011;701;52.526;13.408;2023-03-01T16:37:32;13.37;;;2.40;;
1412;SDS011;701;52.526;13.408;2023-03-01T16:39:59;11.57;;;2.83;;
1412;SDS011;701;52.526;13.408;2023-03-01T16:42:25;11.20;;;2.85;;
1412;SDS011;701;52.526;13.408;2023-03-01T16:44:55;8.38;;;2.80;;
1412;SDS011;701;52.526;13.408;2023-03-01T16:47:21;12.63;;;2.87;;
1412;SDS011;701;52.526;13.408;2023-03-01T16:49:47;8.85;;;3.13;;
1412;SDS011;701;52.526;13.408;2023-03-01T16:52:17;9.18;;;3.90;;
1412;SDS011;701;52.526;13.408;2023-03-01T16:54:43;9.90;;;3.70;;
1412;SDS011;701;52.526;13.408;2023-03-01T16:57:09;11.23;;;3.70;;
1412;SDS011;701;52.526;13.408;2023-03-01T16:59:35;11.15;;;3.00;;